Time;durP1;ratioP1;P1;durP2;ratioP2;P2;SDS_P1;SDS_P2;PMS_P1;PMS_P2;Temp;Humidity;BMP_temperature;BMP_pressure;BME280_temperature;BME280_humidity;BME280_pressure;Samples;Min_cycle;Max_cycle;Signal;HPM_P1;HPM_P2
2021/07/16 00:01:23;;;;;;;9.08;5.15;;;;;;;20.73;75.01;94457.16;1670974;84;21070;-52
2021/07/16 00:03:50;;;;;;;9.98;5.03;;;;;;;20.71;75.11;94465.31;1685798;84;21005;-51
2021/07/16 00:06:19;;;;;;;5.17;4.40;;;;;;;20.69;75.32;94466.45;1686585;83;21082;-50
2021/07/16 00:08:46;;;;;;;8.85;4.67;;;;;;;20.65;75.63;94471.57;1683984;84;20965;-50
2021/07/16 00:11:14;;;;;;;9.50;5.03;;;;;;;20.60;75.94;94466.78;1687827;84;21573;-51
2021/07/16 00:13:42;;;;;;;6.47;5.10;;;;;;;20.52;76.18;94464.44;1685388;84;21080;-54
2021/07/16 00:16:08;;;;;;;5.97;4.50;;;;;;;20.47;76.52;94476.39;1669113;84;21033;-51
2021/07/16 00:18:35;;;;;;;6.55;4.80;;;;;;;20.47;76.74;94474.36;1669434;84;22270;-50
2021/07/16 00:21:03;;;;;;;7.85;5.42;;;;;;;20.49;76.82;94475.23;1669918;84;21490;-51
2021/07/16 00:23:31;;;;;;;8.38;4.78;;;;;;;20.47;76.85;94473.59;1688150;83;21023;-52
2021/07/16 00:25:58;;;;;;;8.83;5.08;;;;;;;20.43;77.15;94471.72;1680107;85;21043;-50
2021/07/16 00:28:25;;;;;;;8.10;5.42;;;;;;;20.40;77.50;94476.30;1685234;83;20966;-52
2021/07/16 00:30:52;;;;;;;7.95;5.20;;;;;;;20.42;77.69;94477.19;1686757;84;21136;-51
2021/07/16 00:33:18;;;;;;;11.40;6.00;;;;;;;20.42;78.00;94488.37;1686661;84;20948;-51
2021/07/16 00:35:45;;;;;;;10.72;6.12;;;;;;;20.43;78.17;94485.69;1682362;83;21073;-51
2021/07/16 00:38:13;;;;;;;9.33;5.78;;;;;;;20.46;78.20;94479.06;1697975;83;21196;-51
2021/07/16 00:40:41;;;;;;;10.68;5.83;;;;;;;20.47;78.35;94467.37;1695371;83;21101;-51
2021/07/16 00:43:08;;;;;;;9.78;5.00;;;;;;;20.47;78.27;94458.99;1683810;84;21797;-51
2021/07/16 00:45:34;;;;;;;9.65;5.65;;;;;;;20.49;78.34;94460.63;1679994;85;21463;-51
2021/07/16 00:48:01;;;;;;;7.80;5.40;;;;;;;20.49;78.33;94471.03;1686756;83;21181;-51
2021/07/16 00:50:34;;;;;;;9.90;5.83;;;;;;;20.49;78.39;94466.22;1679940;85;21050;-51
2021/07/16 00:53:01;;;;;;;6.73;5.80;;;;;;;20.52;78.50;94475.61;1686998;83;21638;-51
2021/07/16 00:55:30;;;;;;;9.95;5.60;;;;;;;20.47;78.61;94481.98;1681301;84;21732;-51
2021/07/16 00:57:57;;;;;;;7.53;5.28;;;;;;;20.41;79.02;94474.27;1695083;83;21187;-50
2021/07/16 01:00:24;;;;;;;8.63;5.22;;;;;;;20.35;79.33;94470.76;1686234;83;21229;-51
2021/07/16 01:02:52;;;;;;;15.03;5.72;;;;;;;20.28;79.68;94462.28;1691969;83;21506;-51
2021/07/16 01:05:20;;;;;;;8.23;5.42;;;;;;;20.27;80.09;94460.77;1683404;83;21495;-50
2021/07/16 01:07:50;;;;;;;8.80;5.45;;;;;;;20.27;80.35;94446.03;1686305;83;21807;-50
2021/07/16 01:10:20;;;;;;;10.40;5.85;;;;;;;20.28;80.50;94446.14;1683484;83;20967;-53
2021/07/16 01:12:53;;;;;;;6.20;5.00;;;;;;;20.30;80.58;94438.00;1694319;83;21058;-51
2021/07/16 01:15:25;;;;;;;7.95;4.92;;;;;;;20.31;80.59;94439.52;1686944;83;21004;-51
2021/07/16 01:17:53;;;;;;;7.40;4.70;;;;;;;20.28;80.92;94448.94;1681321;84;21049;-52
2021/07/16 01:20:23;;;;;;;9.55;5.95;;;;;;;20.18;81.20;94449.14;1680081;84;21212;-51
2021/07/16 01:22:49;;;;;;;12.50;6.42;;;;;;;20.10;81.51;94446.01;1686050;84;21050;-51
2021/07/16 01:25:22;;;;;;;10.30;5.33;;;;;;;20.04;82.01;94443.23;1695375;83;20958;-50
2021/07/16 01:27:50;;;;;;;6.45;4.87;;;;;;;20.02;82.32;94446.41;1688085;83;21015;-51
2021/07/16 01:30:21;;;;;;;10.40;6.35;;;;;;;19.99;83.08;94459.36;1679977;84;20951;-51
2021/07/16 01:32:48;;;;;;;14.70;5.92;;;;;;;19.92;83.65;94458.48;1683898;84;21132;-51
2021/07/16 01:35:16;;;;;;;9.28;6.30;;;;;;;19.83;84.16;94461.58;1687459;84;21013;-51
2021/07/16 01:37:43;;;;;;;11.38;5.40;;;;;;;19.75;84.58;94456.39;1681095;84;21003;-50
2021/07/16 01:40:14;;;;;;;6.65;4.75;;;;;;;19.73;85.01;94447.77;1679903;84;21011;-51
2021/07/16 01:42:43;;;;;;;7.40;5.72;;;;;;;19.73;85.15;94448.43;1679994;84;21007;-51
2021/07/16 01:45:13;;;;;;;8.83;6.42;;;;;;;19.74;85.13;94450.69;1688808;83;21076;-51
2021/07/16 01:47:44;;;;;;;9.33;6.33;;;;;;;19.78;85.19;94449.78;1690349;83;21044;-51
2021/07/16 01:50:12;;;;;;;8.98;5.75;;;;;;;19.77;84.86;94442.68;1690555;84;20983;-51
2021/07/16 01:52:38;;;;;;;11.43;6.65;;;;;;;19.72;84.91;94435.09;1695792;83;21093;-51
2021/07/16 01:55:09;;;;;;;11.45;6.00;;;;;;;19.64;85.26;94429.16;1690878;83;21014;-52
2021/07/16 01:57:36;;;;;;;8.03;5.83;;;;;;;19.60;85.42;94430.81;1691802;83;21545;-51
2021/07/16 02:00:10;;;;;;;13.05;6.78;;;;;;;19.56;85.78;94442.89;1672414;84;21058;-51
2021/07/16 02:02:52;;;;;;;11.43;6.00;;;;;;;19.48;86.02;94449.50;1688238;84;21096;-50
2021/07/16 02:05:20;;;;;;;9.10;5.83;;;;;;;19.42;86.31;94450.94;1692990;83;21506;-49
2021/07/16 02:07:50;;;;;;;12.20;6.80;;;;;;;19.36;86.43;94448.78;1667858;84;20958;-50
2021/07/16 02:10:19;;;;;;;10.93;6.92;;;;;;;19.34;86.79;94439.42;1667820;84;20974;-51
2021/07/16 02:12:48;;;;;;;11.10;6.85;;;;;;;19.36;86.74;94443.84;1690413;83;20986;-51
2021/07/16 02:15:20;;;;;;;11.38;6.40;;;;;;;19.36;86.70;94442.45;1689772;83;20950;-50
2021/07/16 02:17:47;;;;;;;7.70;5.45;;;;;;;19.32;86.62;94439.92;1685248;83;20963;-50
2021/07/16 02:20:23;;;;;;;13.08;6.00;;;;;;;19.31;86.62;94448.16;1685806;83;20963;-51
2021/07/16 02:22:53;;;;;;;9.05;5.80;;;;;;;19.31;86.81;94448.16;1680058;84;20984;-51
2021/07/16 02:25:21;;;;;;;8.73;6.25;;;;;;;19.35;86.84;94447.91;1683002;83;21011;-51
2021/07/16 02:27:51;;;;;;;9.03;6.42;;;;;;;19.37;86.71;94465.64;1690822;83;21436;-51
2021/07/16 02:30:21;;;;;;;10.55;5.70;;;;;;;19.36;86.55;94471.09;1688018;83;21070;-50
2021/07/16 02:32:49;;;;;;;15.55;5.97;;;;;;;19.29;86.54;94474.42;1679989;84;21047;-50
2021/07/16 02:35:16;;;;;;;13.90;6.37;;;;;;;19.24;86.76;94476.59;1681127;84;21103;-50
2021/07/16 02:37:43;;;;;;;11.18;6.35;;;;;;;19.21;86.82;94481.77;1683667;84;21490;-50
2021/07/16 02:40:14;;;;;;;10.18;5.95;;;;;;;19.18;86.88;94484.19;1690255;83;21110;-50
2021/07/16 02:42:43;;;;;;;7.47;5.83;;;;;;;19.18;86.70;94483.44;1693439;83;21538;-50
2021/07/16 02:45:14;;;;;;;9.65;5.78;;;;;;;19.14;86.54;94488.46;1671181;83;21156;-49
2021/07/16 02:47:41;;;;;;;7.72;5.95;;;;;;;19.09;86.43;94483.03;1687062;84;21177;-51
2021/07/16 02:50:16;;;;;;;10.43;5.83;;;;;;;18.99;86.59;94491.52;1688140;83;21026;-51
2021/07/16 02:52:44;;;;;;;10.72;6.25;;;;;;;18.95;87.01;94489.63;1694851;83;20967;-51
2021/07/16 02:55:11;;;;;;;12.40;6.05;;;;;;;18.94;87.06;94485.94;1687067;83;21019;-54
2021/07/16 02:57:39;;;;;;;8.75;5.12;;;;;;;18.94;87.24;94492.29;1684651;84;21090;-56
2021/07/16 03:00:12;;;;;;;16.77;6.22;;;;;;;18.95;87.47;94491.64;1692827;83;21122;-56
2021/07/16 03:02:44;;;;;;;7.53;6.30;;;;;;;18.93;87.55;94491.39;1693332;83;20986;-56
2021/07/16 03:05:12;;;;;;;12.05;6.78;;;;;;;18.87;87.85;94497.61;1687991;83;21005;-54
2021/07/16 03:07:39;;;;;;;11.83;7.15;;;;;;;18.85;88.29;94493.17;1695694;83;21045;-54
2021/07/16 03:10:08;;;;;;;13.03;6.72;;;;;;;18.84;88.23;94493.80;1681014;85;20948;-55
2021/07/16 03:12:39;;;;;;;11.85;6.62;;;;;;;18.82;88.32;94485.18;1680043;84;21122;-55
2021/07/16 03:15:15;;;;;;;19.23;7.22;;;;;;;18.82;88.52;94487.97;1674799;84;20951;-56
2021/07/16 03:17:41;;;;;;;21.50;10.05;;;;;;;18.81;88.44;94482.27;1690820;83;21039;-56
2021/07/16 03:20:10;;;;;;;21.02;10.40;;;;;;;18.81;88.50;94478.09;1686655;83;20966;-53
2021/07/16 03:22:38;;;;;;;27.65;11.50;;;;;;;18.80;88.36;94477.97;1684930;83;20943;-53
2021/07/16 03:25:08;;;;;;;15.58;8.35;;;;;;;18.78;88.51;94480.50;1668678;84;21412;-59
2021/07/16 03:27:35;;;;;;;19.48;8.78;;;;;;;18.77;88.49;94483.78;1681199;84;21073;-57
2021/07/16 03:30:02;;;;;;;17.02;10.25;;;;;;;18.76;88.46;94487.84;1686668;84;20984;-55
2021/07/16 03:32:29;;;;;;;20.55;10.35;;;;;;;18.70;88.61;94473.92;1685499;83;21041;-50
2021/07/16 03:34:56;;;;;;;26.80;12.73;;;;;;;18.69;89.04;94476.58;1696301;83;20971;-49
2021/07/16 03:37:22;;;;;;;26.33;8.88;;;;;;;18.73;89.09;94478.48;1682627;84;21068;-49
2021/07/16 03:39:50;;;;;;;18.37;8.75;;;;;;;18.74;89.05;94473.03;1683015;84;21034;-48
2021/07/16 03:42:19;;;;;;;12.23;7.12;;;;;;;18.76;89.31;94470.49;1693696;83;21016;-49
2021/07/16 03:44:46;;;;;;;10.53;6.97;;;;;;;18.79;89.24;94456.93;1690513;83;21489;-50
2021/07/16 03:47:15;;;;;;;15.25;7.12;;;;;;;18.83;89.19;94453.25;1686194;83;20959;-50
2021/07/16 03:49:43;;;;;;;11.40;7.00;;;;;;;18.85;88.96;94447.92;1680496;84;21139;-49
2021/07/16 03:52:10;;;;;;;16.52;7.40;;;;;;;18.85;88.82;94440.21;1688706;83;21002;-49
2021/07/16 03:54:37;;;;;;;18.60;7.40;;;;;;;18.85;88.78;94445.14;1683115;84;21053;-49
2021/07/16 03:57:05;;;;;;;29.02;9.18;;;;;;;18.83;88.74;94449.07;1692991;83;20987;-50
2021/07/16 03:59:32;;;;;;;15.55;7.75;;;;;;;18.80;88.83;94459.10;1684702;84;20999;-51
2021/07/16 04:02:02;;;;;;;13.95;7.10;;;;;;;18.77;89.09;94457.30;1692262;83;21156;-49
2021/07/16 04:04:29;;;;;;;12.53;6.20;;;;;;;18.78;89.08;94451.85;1684584;83;21013;-49
2021/07/16 04:06:58;;;;;;;10.82;7.22;;;;;;;18.79;88.99;94449.97;1688584;84;21011;-48
2021/07/16 04:09:27;;;;;;;12.58;7.87;;;;;;;18.79;88.90;94457.58;1616960;84;20970;-48
2021/07/16 04:12:14;;;;;;;11.28;7.12;;;;;;;18.77;89.02;94462.26;1691459;83;20974;-50
2021/07/16 04:14:48;;;;;;;13.25;6.78;;;;;;;18.74;89.15;94460.48;1690847;84;21092;-50
2021/07/16 04:17:17;;;;;;;13.95;6.97;;;;;;;18.74;89.08;94459.72;1687807;83;21411;-50
2021/07/16 04:19:44;;;;;;;9.13;6.35;;;;;;;18.75;89.42;94460.61;1697648;83;21006;-49
2021/07/16 04:22:12;;;;;;;13.80;6.80;;;;;;;18.83;89.30;94467.19;1688204;83;21001;-49
2021/07/16 04:24:41;;;;;;;13.83;6.97;;;;;;;18.86;89.33;94467.56;1691928;83;21473;-50
2021/07/16 04:27:11;;;;;;;9.38;6.67;;;;;;;18.92;89.13;94469.73;1686920;84;21857;-50
2021/07/16 04:29:39;;;;;;;12.70;7.35;;;;;;;18.92;89.04;94465.55;1683801;83;21178;-50
2021/07/16 04:32:07;;;;;;;10.43;6.67;;;;;;;18.99;89.26;94478.23;1688261;84;21004;-50
2021/07/16 04:34:38;;;;;;;12.90;6.28;;;;;;;19.09;89.26;94486.45;1693593;83;21017;-49
2021/07/16 04:37:06;;;;;;;12.88;6.78;;;;;;;19.21;89.11;94504.08;1689300;83;20963;-49
2021/07/16 04:39:35;;;;;;;10.32;6.72;;;;;;;19.35;88.54;94507.89;1690426;83;20951;-49
2021/07/16 04:42:01;;;;;;;10.72;7.08;;;;;;;19.47;88.10;94512.94;1675127;84;21058;-51
2021/07/16 04:44:30;;;;;;;11.25;7.00;;;;;;;19.58;87.77;94518.48;1688085;84;21002;-49
2021/07/16 04:46:57;;;;;;;9.38;5.85;;;;;;;19.68;87.37;94511.38;1682533;84;21003;-49
2021/07/16 04:49:25;;;;;;;12.93;5.90;;;;;;;19.82;86.90;94506.13;1670334;84;38839;-49
2021/07/16 04:51:52;;;;;;;52.95;8.63;;;;;;;19.92;86.67;94509.41;1688928;84;21077;-50
2021/07/16 04:54:19;;;;;;;10.08;6.47;;;;;;;20.02;85.80;94497.45;1688273;83;21039;-50
2021/07/16 04:56:46;;;;;;;20.80;7.05;;;;;;;20.11;84.93;94492.96;1669485;85;21527;-50
2021/07/16 04:59:13;;;;;;;32.95;7.62;;;;;;;20.17;84.40;94493.72;1689682;84;21051;-50
2021/07/16 05:01:41;;;;;;;18.57;6.25;;;;;;;20.26;84.20;94487.19;1688394;83;21546;-50
2021/07/16 05:04:09;;;;;;;10.93;5.62;;;;;;;20.37;83.04;94491.95;1694370;83;21131;-49
2021/07/16 05:06:35;;;;;;;15.05;7.12;;;;;;;20.44;82.37;94491.41;1690447;83;20963;-49
2021/07/16 05:09:03;;;;;;;16.82;7.28;;;;;;;20.47;81.72;94494.55;1691423;83;21015;-50
2021/07/16 05:11:34;;;;;;;15.45;8.00;;;;;;;20.47;81.51;94491.76;1690420;84;21140;-50
2021/07/16 05:14:01;;;;;;;18.90;9.28;;;;;;;20.47;81.25;94491.14;1667431;85;21298;-50
2021/07/16 05:16:28;;;;;;;12.53;7.55;;;;;;;20.49;81.01;94478.80;1691700;83;21111;-50
2021/07/16 05:18:56;;;;;;;11.57;7.22;;;;;;;20.56;80.97;94478.89;1687743;83;20958;-51
2021/07/16 05:21:22;;;;;;;15.15;7.10;;;;;;;20.59;80.54;94480.64;1692354;84;20999;-50
2021/07/16 05:23:49;;;;;;;12.58;7.53;;;;;;;20.61;80.63;94479.48;1681985;83;21018;-51
2021/07/16 05:26:16;;;;;;;15.60;7.37;;;;;;;20.69;80.47;94486.02;1670581;84;21243;-50
2021/07/16 05:28:45;;;;;;;12.33;6.97;;;;;;;20.76;80.14;94481.29;1681526;83;21133;-50
2021/07/16 05:31:14;;;;;;;11.57;6.75;;;;;;;20.79;79.82;94471.86;1679952;84;21011;-50
2021/07/16 05:33:41;;;;;;;13.22;7.20;;;;;;;20.82;79.57;94468.02;1679943;84;21066;-51
2021/07/16 05:36:08;;;;;;;15.13;7.33;;;;;;;20.80;79.42;94477.56;1691863;83;21514;-52
2021/07/16 05:38:37;;;;;;;13.88;7.97;;;;;;;20.77;79.38;94478.61;1691737;83;21851;-53
2021/07/16 05:41:05;;;;;;;19.82;7.25;;;;;;;20.78;79.50;94478.73;1688048;83;21118;-51
2021/07/16 05:43:33;;;;;;;14.35;8.15;;;;;;;20.80;79.67;94466.38;1676282;84;21470;-59
2021/07/16 05:46:01;;;;;;;6.80;5.70;;;;;;;20.84;79.54;94466.26;1683481;83;21094;-57
2021/07/16 05:48:27;;;;;;;11.53;7.25;;;;;;;20.90;79.21;94464.16;1693436;83;21053;-51
2021/07/16 05:50:55;;;;;;;10.28;6.75;;;;;;;20.97;78.84;94471.23;1699252;82;21093;-55
2021/07/16 05:53:22;;;;;;;12.63;7.37;;;;;;;21.02;78.65;94470.42;1676969;83;21837;-53
2021/07/16 05:55:49;;;;;;;12.23;6.72;;;;;;;21.07;78.71;94463.39;1699825;82;21081;-61
2021/07/16 05:58:16;;;;;;;16.65;8.03;;;;;;;21.18;78.51;94452.73;1702061;82;21057;-52
2021/07/16 06:00:43;;;;;;;17.10;8.60;;;;;;;21.27;78.22;94444.02;1705188;82;20994;-56
2021/07/16 06:03:09;;;;;;;23.22;9.40;;;;;;;21.36;78.28;94438.06;1696339;83;21001;-62
2021/07/16 06:05:37;;;;;;;13.05;6.75;;;;;;;21.47;77.88;94435.91;1689761;83;22435;-53
2021/07/16 06:08:05;;;;;;;11.68;7.03;;;;;;;21.66;77.56;94441.59;1686924;83;21127;-51
2021/07/16 06:10:33;;;;;;;13.98;7.08;;;;;;;21.81;77.02;94441.94;1697132;82;21059;-57
2021/07/16 06:13:00;;;;;;;15.23;7.33;;;;;;;21.92;76.27;94439.77;1689169;82;21528;-53
2021/07/16 06:15:27;;;;;;;11.55;7.08;;;;;;;21.99;75.93;94431.41;1692530;83;21132;-60
2021/07/16 06:17:53;;;;;;;11.65;6.80;;;;;;;22.04;75.40;94431.31;1689758;82;21196;-59
2021/07/16 06:20:20;;;;;;;9.50;7.17;;;;;;;22.11;74.92;94425.86;1696378;82;21065;-55
2021/07/16 06:22:47;;;;;;;17.32;8.48;;;;;;;22.19;74.77;94421.81;1691791;83;21086;-59
2021/07/16 06:25:15;;;;;;;16.12;7.60;;;;;;;22.29;74.42;94418.77;1686581;82;21362;-56
2021/07/16 06:27:41;;;;;;;14.47;7.62;;;;;;;22.37;74.26;94411.25;1688453;83;21078;-53
2021/07/16 06:30:11;;;;;;;12.58;7.95;;;;;;;22.51;74.10;94407.99;1685942;82;21120;-64
2021/07/16 06:32:37;;;;;;;9.73;7.78;;;;;;;22.70;73.10;94406.57;1687493;82;21073;-55
2021/07/16 06:35:07;;;;;;;8.53;6.62;;;;;;;22.88;72.32;94402.30;1687500;82;21219;-53
2021/07/16 06:37:35;;;;;;;16.65;7.78;;;;;;;23.03;71.05;94395.55;1655656;84;22022;-54
2021/07/16 06:40:04;;;;;;;9.00;6.65;;;;;;;23.19;70.60;94387.52;1655845;84;21795;-55
2021/07/16 06:42:31;;;;;;;8.93;6.47;;;;;;;23.39;71.04;94395.97;1684023;82;21096;-57
2021/07/16 06:44:59;;;;;;;13.25;6.65;;;;;;;23.59;70.45;94390.45;1692460;82;21432;-61
2021/07/16 06:47:26;;;;;;;17.75;6.97;;;;;;;23.76;69.87;94390.15;1691990;83;21147;-55
2021/07/16 06:49:55;;;;;;;15.05;7.20;;;;;;;23.90;69.25;94372.75;1681244;83;21030;-66
2021/07/16 06:52:23;;;;;;;12.20;7.62;;;;;;;24.00;69.33;94361.19;1675256;82;20967;-56
2021/07/16 06:54:50;;;;;;;14.98;7.67;;;;;;;24.10;69.72;94361.59;1679093;83;21227;-56
2021/07/16 06:57:16;;;;;;;11.12;7.00;;;;;;;24.24;69.46;94358.09;1678126;83;21006;-57
2021/07/16 06:59:43;;;;;;;12.05;6.87;;;;;;;24.37;69.71;94352.42;1690167;83;21069;-54
2021/07/16 07:02:10;;;;;;;13.98;8.90;;;;;;;24.50;68.92;94348.14;1685587;83;21518;-58
2021/07/16 07:04:36;;;;;;;14.47;8.03;;;;;;;24.64;68.24;94349.62;1695731;83;21471;-56
2021/07/16 07:07:05;;;;;;;19.32;8.00;;;;;;;24.78;67.44;94349.00;1710413;83;21029;-54
2021/07/16 07:09:32;;;;;;;12.58;7.25;;;;;;;24.93;67.73;94343.52;1691647;82;21085;-58
2021/07/16 07:12:00;;;;;;;9.55;6.78;;;;;;;25.02;66.32;94338.05;1660087;81;33114;-55
2021/07/16 07:14:27;;;;;;;10.08;7.30;;;;;;;25.08;66.53;94341.50;1627566;86;21118;-56
2021/07/16 07:16:55;;;;;;;9.70;6.60;;;;;;;25.17;66.53;94343.80;1630145;86;21094;-56
2021/07/16 07:19:22;;;;;;;13.40;7.47;;;;;;;25.25;66.17;94351.03;1640270;86;21164;-55
2021/07/16 07:21:50;;;;;;;10.90;7.08;;;;;;;25.32;65.60;94348.17;1628268;86;21610;-56
2021/07/16 07:24:17;;;;;;;11.10;7.37;;;;;;;25.41;66.02;94349.06;1622775;85;21618;-56
2021/07/16 07:26:43;;;;;;;10.15;6.62;;;;;;;25.54;65.57;94349.74;1632959;86;21097;-55
2021/07/16 07:29:10;;;;;;;10.65;7.78;;;;;;;25.66;64.94;94348.77;1635239;86;21045;-62
2021/07/16 07:31:38;;;;;;;16.17;8.00;;;;;;;25.82;64.43;94353.19;1639909;86;22324;-58
2021/07/16 07:34:05;;;;;;;9.90;7.00;;;;;;;25.95;64.09;94353.84;1628173;86;20996;-59
2021/07/16 07:36:32;;;;;;;11.18;7.42;;;;;;;26.08;63.28;94355.88;1643636;85;21012;-58
2021/07/16 07:38:59;;;;;;;13.35;7.12;;;;;;;26.16;62.14;94355.91;1636542;86;21005;-60
2021/07/16 07:41:27;;;;;;;14.93;9.45;;;;;;;26.19;62.87;94351.32;1633012;85;21001;-63
2021/07/16 07:43:56;;;;;;;15.30;7.33;;;;;;;26.23;62.75;94351.70;1637320;85;21186;-58
2021/07/16 07:46:24;;;;;;;13.03;8.58;;;;;;;26.26;62.32;94347.77;1648499;85;21070;-60
2021/07/16 07:48:51;;;;;;;12.47;8.15;;;;;;;26.35;61.79;94354.94;1631785;85;21530;-55
2021/07/16 07:51:18;;;;;;;16.97;7.75;;;;;;;26.42;60.82;94359.84;1635895;86;21173;-57
2021/07/16 07:53:44;;;;;;;18.37;7.92;;;;;;;26.49;60.57;94359.89;1629840;85;21107;-60
2021/07/16 07:56:11;;;;;;;11.33;7.90;;;;;;;26.54;59.71;94366.05;1650287;85;21799;-59
2021/07/16 07:58:40;;;;;;;20.90;14.60;;;;;;;26.53;59.51;94367.33;1626205;86;21194;-58
2021/07/16 08:01:07;;;;;;;14.45;9.38;;;;;;;26.52;59.76;94372.14;1656090;84;21001;-62
2021/07/16 08:03:34;;;;;;;11.73;8.83;;;;;;;26.47;59.38;94370.96;1628362;86;21015;-61
2021/07/16 08:06:01;;;;;;;11.80;8.35;;;;;;;26.46;59.71;94367.31;1635481;86;21057;-65
2021/07/16 08:08:28;;;;;;;26.77;18.92;;;;;;;26.42;59.50;94357.79;1645815;85;21100;-60
2021/07/16 08:10:56;;;;;;;18.67;9.68;;;;;;;26.45;59.87;94358.08;1641398;85;21057;-62
2021/07/16 08:13:25;;;;;;;14.43;8.60;;;;;;;26.53;60.02;94357.45;1640373;85;21012;-58
2021/07/16 08:15:52;;;;;;;15.13;8.65;;;;;;;26.69;60.37;94356.17;1627554;86;21081;-61
2021/07/16 08:18:19;;;;;;;11.85;8.35;;;;;;;26.85;59.86;94356.30;1638864;85;21535;-60
2021/07/16 08:20:46;;;;;;;12.13;7.78;;;;;;;27.03;59.96;94366.48;1647015;85;21120;-61
2021/07/16 08:23:12;;;;;;;14.33;9.05;;;;;;;27.17;58.91;94357.96;1650970;85;21141;-59
2021/07/16 08:25:39;;;;;;;18.82;8.00;;;;;;;27.29;58.42;94360.52;1630492;85;21516;-63
2021/07/16 08:28:07;;;;;;;12.43;8.28;;;;;;;27.41;58.52;94353.14;1638263;85;20999;-62
2021/07/16 08:30:36;;;;;;;15.15;8.43;;;;;;;27.56;57.66;94365.84;1632325;85;21045;-62
2021/07/16 08:33:04;;;;;;;12.45;8.33;;;;;;;27.70;58.12;94358.67;1627109;85;22095;-58
2021/07/16 08:35:32;;;;;;;13.58;8.20;;;;;;;27.88;57.59;94368.08;1627175;86;21061;-60
2021/07/16 08:38:00;;;;;;;12.63;8.43;;;;;;;28.02;57.24;94364.47;1633780;85;21137;-57
2021/07/16 08:40:27;;;;;;;15.00;9.18;;;;;;;28.13;56.67;94363.39;1590904;87;21082;-53
2021/07/16 08:42:56;;;;;;;15.10;8.55;;;;;;;28.25;56.59;94360.89;1578553;88;21085;-55
2021/07/16 08:45:22;;;;;;;12.98;9.18;;;;;;;28.39;56.09;94372.09;1607935;86;21195;-57
2021/07/16 08:47:49;;;;;;;11.93;8.40;;;;;;;28.52;56.44;94373.24;1651351;85;21010;-57
2021/07/16 08:50:16;;;;;;;12.90;9.40;;;;;;;28.64;55.76;94365.83;1640561;85;21171;-52
2021/07/16 08:52:47;;;;;;;15.95;9.45;;;;;;;28.73;55.17;94360.30;1639607;85;21057;-58
2021/07/16 08:55:14;;;;;;;18.02;9.80;;;;;;;28.85;55.99;94362.02;1629978;86;21659;-59
2021/07/16 08:57:42;;;;;;;15.05;9.13;;;;;;;29.02;55.54;94367.80;1642984;85;21111;-54
2021/07/16 09:00:12;;;;;;;17.62;9.20;;;;;;;29.15;54.53;94356.92;1642247;85;21482;-64
2021/07/16 09:02:54;;;;;;;11.25;8.45;;;;;;;29.31;53.81;94356.16;1639547;85;21044;-59
2021/07/16 09:05:40;;;;;;;15.30;8.78;;;;;;;29.47;53.05;94358.98;1648197;85;21128;-69
2021/07/16 09:08:20;;;;;;;12.40;8.75;;;;;;;29.57;52.41;94364.08;1630215;84;21097;-66
2021/07/16 09:10:54;;;;;;;16.90;8.85;;;;;;;29.59;51.96;94353.66;1645362;86;21320;-56
2021/07/16 09:13:21;;;;;;;12.95;9.15;;;;;;;29.53;52.86;94354.55;1647692;84;21031;-63
2021/07/16 09:15:52;;;;;;;14.78;9.38;;;;;;;29.49;52.07;94353.48;1638840;85;21065;-64
2021/07/16 09:18:28;;;;;;;19.98;9.65;;;;;;;29.38;52.16;94358.16;1644134;85;21176;-57
2021/07/16 09:21:07;;;;;;;14.35;9.05;;;;;;;29.21;53.13;94355.28;1656798;86;21049;-62
2021/07/16 09:23:42;;;;;;;21.35;9.25;;;;;;;29.15;53.69;94359.02;1649137;85;21611;-57
2021/07/16 09:26:14;;;;;;;19.15;9.90;;;;;;;29.20;53.77;94360.86;1652951;85;21133;-52
2021/07/16 09:28:45;;;;;;;;;;;;;;;29.30;53.98;94354.66;1650338;85;21210;-56
2021/07/16 09:31:24;;;;;;;14.60;9.38;;;;;;;29.38;53.71;94360.34;1641941;85;20147;-55
2021/07/16 09:34:01;;;;;;;20.75;9.65;;;;;;;29.44;53.40;94364.34;1607402;87;21150;-57
2021/07/16 09:36:38;;;;;;;17.70;9.30;;;;;;;29.48;52.97;94361.22;1582820;88;21842;-58
2021/07/16 09:39:16;;;;;;;16.17;10.30;;;;;;;29.49;52.15;94367.66;1622619;85;21140;-55
2021/07/16 09:41:53;;;;;;;16.62;9.68;;;;;;;29.39;52.30;94370.36;1634041;85;21094;-59
2021/07/16 09:44:35;;;;;;;17.92;9.73;;;;;;;29.35;52.29;94372.09;1621080;86;21061;-56
2021/07/16 09:47:18;;;;;;;18.90;10.18;;;;;;;29.40;52.59;94372.51;1631438;85;21789;-61
2021/07/16 09:50:07;;;;;;;15.50;10.32;;;;;;;29.53;52.56;94370.83;1650238;85;21659;-54
2021/07/16 09:52:33;;;;;;;18.92;9.88;;;;;;;29.67;52.38;94363.52;1656543;85;21149;-57
2021/07/16 09:55:18;;;;;;;13.85;9.30;;;;;;;29.85;51.86;94367.88;1602561;88;21394;-61
2021/07/16 09:57:49;;;;;;;13.38;9.40;;;;;;;30.01;52.44;94360.80;1562070;89;21179;-60
2021/07/16 10:00:22;;;;;;;;;;;;;;;30.14;50.86;94354.80;1653587;85;21680;-56
2021/07/16 10:02:55;;;;;;;15.15;9.80;;;;;;;30.19;49.65;94353.81;1637198;84;22701;-57
2021/07/16 10:05:22;;;;;;;18.25;9.55;;;;;;;30.17;49.85;94356.47;1656586;85;21000;-55
2021/07/16 10:07:50;;;;;;;17.05;8.78;;;;;;;30.17;49.27;94359.98;1656505;85;21483;-57
2021/07/16 10:10:20;;;;;;;14.68;7.83;;;;;;;30.26;49.43;94357.22;1651506;84;21506;-58
2021/07/16 10:12:49;;;;;;;10.75;8.90;;;;;;;30.36;49.96;94352.36;1655791;85;21278;-55
2021/07/16 10:15:20;;;;;;;12.82;8.48;;;;;;;30.47;48.92;94351.85;1650649;85;21082;-64
2021/07/16 10:17:49;;;;;;;17.70;9.80;;;;;;;30.57;47.96;94359.81;1642861;85;21537;-55
2021/07/16 10:20:18;;;;;;;11.43;8.45;;;;;;;30.73;48.57;94358.27;1643659;85;21159;-56
2021/07/16 10:22:46;;;;;;;13.70;8.65;;;;;;;30.96;47.26;94353.02;1635551;85;21304;-55
2021/07/16 10:25:18;;;;;;;13.25;8.10;;;;;;;31.22;46.50;94345.14;1651695;84;21233;-58
2021/07/16 10:27:45;;;;;;;14.73;7.70;;;;;;;31.48;46.24;94349.28;1637010;86;21125;-54
2021/07/16 10:30:16;;;;;;;15.48;8.90;;;;;;;31.64;45.79;94354.11;1614201;83;21081;-62
2021/07/16 10:32:53;;;;;;;13.20;8.83;;;;;;;31.70;44.50;94346.09;1626871;85;21558;-54
2021/07/16 10:35:26;;;;;;;18.70;8.28;;;;;;;31.66;43.84;94347.20;1661313;85;21067;-59
2021/07/16 10:37:58;;;;;;;17.02;8.48;;;;;;;31.50;44.02;94348.02;1654912;86;21072;-56
2021/07/16 10:40:46;;;;;;;14.20;8.93;;;;;;;31.28;44.33;94345.64;1640512;85;22425;-55
2021/07/16 10:43:31;;;;;;;14.33;8.78;;;;;;;31.04;45.21;94341.53;1610174;86;22152;-55
2021/07/16 10:45:59;;;;;;;15.80;9.23;;;;;;;30.70;45.79;94343.80;1657483;85;21524;-59
2021/07/16 10:48:31;;;;;;;16.10;9.40;;;;;;;30.37;46.95;94350.28;1659430;85;21131;-62
2021/07/16 10:50:57;;;;;;;14.95;9.58;;;;;;;30.11;47.89;94347.46;1650818;85;21123;-57
2021/07/16 10:53:32;;;;;;;20.23;10.58;;;;;;;29.87;48.70;94345.36;1637788;85;21243;-60
2021/07/16 10:56:06;;;;;;;17.45;11.43;;;;;;;29.64;49.39;94350.52;1633320;86;21577;-60
2021/07/16 10:58:43;;;;;;;18.25;9.78;;;;;;;29.36;49.58;94360.83;1636070;86;21114;-61
2021/07/16 11:01:14;;;;;;;22.77;11.10;;;;;;;29.08;50.48;94357.73;1644901;85;21699;-61
2021/07/16 11:03:45;;;;;;;15.28;9.70;;;;;;;28.87;51.21;94365.02;1633033;85;21773;-56
2021/07/16 11:06:14;;;;;;;14.70;10.90;;;;;;;28.73;51.77;94364.55;1645613;85;21230;-58
2021/07/16 11:08:49;;;;;;;13.48;8.80;;;;;;;28.57;52.56;94366.63;1641289;86;21597;-54
2021/07/16 11:11:37;;;;;;;17.05;9.73;;;;;;;28.50;53.13;94360.33;1627051;86;21109;-55
2021/07/16 11:14:04;;;;;;;14.63;8.90;;;;;;;28.42;52.76;94367.44;1638215;85;21154;-61
2021/07/16 11:16:39;;;;;;;21.57;11.45;;;;;;;28.44;53.04;94362.63;1638830;86;21061;-56
2021/07/16 11:19:11;;;;;;;19.77;11.50;;;;;;;28.50;53.77;94356.08;1631408;85;21175;-56
2021/07/16 11:21:49;;;;;;;17.87;11.33;;;;;;;28.61;52.36;94345.75;1620131;85;21054;-54
2021/07/16 11:24:24;;;;;;;17.57;11.48;;;;;;;28.72;51.02;94339.63;1638853;85;21124;-62
2021/07/16 11:26:56;;;;;;;16.62;11.20;;;;;;;28.78;50.21;94344.42;1649153;85;21102;-64
2021/07/16 11:29:27;;;;;;;18.77;10.93;;;;;;;28.81;50.07;94360.99;1648231;83;21353;-56
2021/07/16 11:32:26;;;;;;;19.05;12.40;;;;;;;28.80;50.38;94366.57;1638858;85;21162;-60
2021/07/16 11:35:02;;;;;;;13.32;11.38;;;;;;;28.75;50.68;94372.48;1635934;86;21037;-61
2021/07/16 11:37:48;;;;;;;19.70;11.95;;;;;;;28.62;51.71;94369.90;1622327;86;21065;-55